Other Surface Observations
Issued by NWS Missoula, MT

Home | Current Version | Previous Version | Text Only | Print | Product List | Glossary On
Versions: 1 2 3 4 5 6 7 8 9 10 11 12 13 14 15 16 17 18 19 20 21 22 23 24 25 26 27 28 29 30 31 32 33 34 35 36 37 38 39 40 41 42 43 44 45 46 47 48 49 50
000
SXUS55 KMSO 021923
OSOMSO
MONTANA AWOS SUMMARY
NATIONAL WEATHER SERVICE MISSOULA MT
122 PM MDT TUE JUN 2 2015

Montana AWOS Reports

LAUREL      |K6S8 021915Z AUTO 00000KT 40SM 21/11 A2989 RMK AO1 T02110111
TWIN BRIDGES|K7S1 021915Z AUTO 20007KT 40SM 19/03 A2995 RMK AO1 T01940033
ROUNDUP     |KRPX 021915Z AUTO 00000KT 40SM 16/11 A2984 RMK AO1 T01560106
MALTA       |KM75 021915Z AUTO 40SM 14/09 A2990 RMK AO1 T01390089




USA.gov is the U.S. government's official web portal to all federal, state and local government web resources and services.